createdAt,value
2023-03-17T00:00:05.793Z,4.54
2023-03-17T00:01:05.825Z,4.60
2023-03-17T00:02:05.841Z,4.55
2023-03-17T00:03:06.226Z,4.65
2023-03-17T00:04:05.883Z,4.50
2023-03-17T00:05:05.739Z,4.51
2023-03-17T00:06:05.769Z,4.52
2023-03-17T00:07:05.726Z,4.58
2023-03-17T00:08:05.704Z,4.52
2023-03-17T00:09:05.697Z,4.63
2023-03-17T00:10:05.692Z,4.60
2023-03-17T00:11:05.693Z,4.59
2023-03-17T00:12:05.670Z,4.54
2023-03-17T00:13:05.632Z,4.52
2023-03-17T00:14:05.645Z,4.47
2023-03-17T00:15:05.635Z,4.47
2023-03-17T00:16:05.689Z,4.47
2023-03-17T00:17:06.620Z,4.41
2023-03-17T00:18:05.600Z,4.36
2023-03-17T00:19:05.612Z,4.26
2023-03-17T00:20:05.575Z,4.33
2023-03-17T00:21:05.570Z,4.24
2023-03-17T00:22:05.581Z,4.16
2023-03-17T00:23:05.590Z,4.23
2023-03-17T00:24:05.512Z,4.27
2023-03-17T00:25:05.507Z,4.27
2023-03-17T00:26:05.513Z,4.30
2023-03-17T00:27:05.506Z,4.15
2023-03-17T00:28:05.477Z,4.22
2023-03-17T00:29:05.462Z,4.18
2023-03-17T00:30:05.480Z,4.18
2023-03-17T00:31:05.477Z,4.23
2023-03-17T00:32:05.471Z,4.15
2023-03-17T00:33:05.450Z,4.14
2023-03-17T00:34:05.419Z,4.22
2023-03-17T00:35:05.387Z,4.16
2023-03-17T00:36:05.472Z,4.24
2023-03-17T00:37:05.382Z,4.24
2023-03-17T00:38:05.408Z,4.11
2023-03-17T00:39:05.344Z,4.09
2023-03-17T00:40:05.344Z,4.14
2023-03-17T00:41:05.331Z,4.23
2023-03-17T00:42:05.314Z,4.16
2023-03-17T00:43:05.340Z,4.23
2023-03-17T00:44:05.287Z,4.24
2023-03-17T00:45:05.275Z,4.29
2023-03-17T00:46:05.294Z,4.29
2023-03-17T00:47:05.306Z,4.26
2023-03-17T00:48:05.234Z,4.32
2023-03-17T00:49:05.300Z,4.42
2023-03-17T00:50:05.200Z,4.50
2023-03-17T00:51:05.210Z,4.42
2023-03-17T00:52:05.194Z,4.44
2023-03-17T00:53:05.185Z,4.37
2023-03-17T00:54:05.178Z,4.44
2023-03-17T00:55:05.149Z,4.44
2023-03-17T00:56:05.152Z,4.45
2023-03-17T00:57:05.134Z,4.41
2023-03-17T00:58:05.926Z,4.42
2023-03-17T00:59:05.149Z,4.45
2023-03-17T01:00:05.085Z,4.34
2023-03-17T01:01:05.156Z,4.41
2023-03-17T01:02:05.126Z,4.36
2023-03-17T01:03:05.056Z,4.23
2023-03-17T01:04:05.099Z,4.41
2023-03-17T01:05:06.570Z,4.36
2023-03-17T01:06:05.049Z,4.34
2023-03-17T01:07:05.034Z,4.34
2023-03-17T01:08:04.997Z,4.36
2023-03-17T01:09:04.993Z,4.26
2023-03-17T01:10:05.033Z,4.32
2023-03-17T01:11:04.947Z,4.30
2023-03-17T01:12:04.947Z,4.40
2023-03-17T01:13:04.960Z,4.41
2023-03-17T01:14:04.925Z,4.41
2023-03-17T01:15:04.949Z,4.37
2023-03-17T01:16:04.983Z,4.44
2023-03-17T01:17:04.920Z,4.45
2023-03-17T01:18:04.879Z,4.50
2023-03-17T01:19:04.880Z,4.41
2023-03-17T01:20:04.873Z,4.40
2023-03-17T01:21:04.886Z,4.36
2023-03-17T01:22:04.889Z,4.27
2023-03-17T01:23:04.844Z,4.27
2023-03-17T01:24:04.823Z,4.34
2023-03-17T01:25:04.840Z,4.30
2023-03-17T01:26:04.804Z,4.30
2023-03-17T01:27:04.769Z,4.33
2023-03-17T01:28:04.810Z,4.34
2023-03-17T01:29:04.756Z,4.27
2023-03-17T01:30:04.718Z,4.32
2023-03-17T01:31:04.744Z,4.40
2023-03-17T01:32:04.716Z,4.34
2023-03-17T01:33:04.716Z,4.36
2023-03-17T01:34:04.702Z,4.32
2023-03-17T01:35:04.680Z,4.23
2023-03-17T01:36:04.735Z,4.30
2023-03-17T01:37:04.672Z,4.16
2023-03-17T01:38:04.662Z,4.27
2023-03-17T01:39:04.624Z,4.34
2023-03-17T01:40:04.632Z,4.50
2023-03-17T01:41:04.635Z,4.44
2023-03-17T01:42:04.591Z,4.36
2023-03-17T01:43:04.629Z,4.44
2023-03-17T01:44:04.616Z,4.42
2023-03-17T01:45:04.555Z,4.45
2023-03-17T01:46:04.595Z,4.52
2023-03-17T01:47:04.557Z,4.44
2023-03-17T01:48:04.533Z,4.54
2023-03-17T01:49:04.552Z,4.54
2023-03-17T01:50:04.503Z,4.58
2023-03-17T01:51:04.516Z,4.52
2023-03-17T01:52:04.498Z,4.40
2023-03-17T01:53:04.511Z,4.52
2023-03-17T01:54:04.477Z,4.51
2023-03-17T01:55:04.469Z,4.44
2023-03-17T01:56:04.446Z,4.44
2023-03-17T01:57:04.461Z,4.47
2023-03-17T01:58:04.413Z,4.41
2023-03-17T01:59:04.402Z,4.50
2023-03-17T02:00:04.420Z,4.54
2023-03-17T02:01:04.391Z,4.50
2023-03-17T02:02:04.420Z,4.50
2023-03-17T02:03:04.350Z,4.55
2023-03-17T02:04:04.355Z,4.58
2023-03-17T02:05:04.346Z,4.58
2023-03-17T02:06:04.327Z,4.63
2023-03-17T02:07:04.305Z,4.55
2023-03-17T02:08:04.316Z,4.62
2023-03-17T02:09:04.320Z,4.55
2023-03-17T02:10:04.299Z,4.60
2023-03-17T02:11:04.311Z,4.59
2023-03-17T02:12:04.304Z,4.48
2023-03-17T02:13:04.297Z,4.59
2023-03-17T02:14:04.278Z,4.50
2023-03-17T02:15:04.215Z,4.52
2023-03-17T02:16:04.228Z,4.54
2023-03-17T02:17:04.208Z,4.62
2023-03-17T02:18:04.246Z,4.63
2023-03-17T02:19:04.177Z,4.59
2023-03-17T02:20:04.201Z,4.67
2023-03-17T02:21:04.171Z,4.62
2023-03-17T02:22:04.146Z,4.55
2023-03-17T02:23:04.181Z,4.62
2023-03-17T02:24:04.143Z,4.48
2023-03-17T02:25:04.145Z,4.42
2023-03-17T02:26:04.095Z,4.40
2023-03-17T02:27:04.069Z,4.47
2023-03-17T02:28:04.070Z,4.44
2023-03-17T02:29:04.148Z,4.44
2023-03-17T02:30:04.031Z,4.37
2023-03-17T02:31:04.056Z,4.44
2023-03-17T02:32:04.041Z,4.44
2023-03-17T02:33:04.025Z,4.44
2023-03-17T02:34:03.990Z,4.41
2023-03-17T02:35:04.044Z,4.50
2023-03-17T02:36:03.996Z,4.50
2023-03-17T02:37:03.963Z,4.41
2023-03-17T02:38:03.964Z,4.42
2023-03-17T02:39:03.950Z,4.45
2023-03-17T02:40:03.989Z,4.34
2023-03-17T02:41:03.962Z,4.40
2023-03-17T02:42:03.903Z,4.44
2023-03-17T02:43:03.893Z,4.29
2023-03-17T02:44:03.898Z,4.32
2023-03-17T02:45:03.878Z,4.26
2023-03-17T02:46:03.922Z,4.24
2023-03-17T02:47:03.886Z,4.22
2023-03-17T02:48:04.218Z,4.16
2023-03-17T02:49:03.831Z,4.09
2023-03-17T02:50:03.831Z,4.23
2023-03-17T02:51:03.843Z,4.26
2023-03-17T02:52:03.805Z,4.24
2023-03-17T02:53:03.795Z,4.29
2023-03-17T02:54:03.767Z,4.30
2023-03-17T02:55:03.773Z,4.16
2023-03-17T02:56:03.806Z,4.29
2023-03-17T02:57:04.035Z,4.27
2023-03-17T02:58:03.733Z,4.16
2023-03-17T02:59:03.740Z,4.18
2023-03-17T03:00:03.714Z,4.33
2023-03-17T03:01:03.729Z,4.34
2023-03-17T03:02:03.774Z,4.37
2023-03-17T03:03:03.684Z,4.37
2023-03-17T03:04:03.664Z,4.41
2023-03-17T03:05:03.687Z,4.36
2023-03-17T03:06:03.698Z,4.45
2023-03-17T03:07:03.676Z,4.45
2023-03-17T03:08:03.649Z,4.32
2023-03-17T03:09:03.612Z,4.40
2023-03-17T03:10:03.598Z,4.42
2023-03-17T03:11:03.620Z,4.55
2023-03-17T03:12:03.587Z,4.55
2023-03-17T03:13:03.593Z,4.50
2023-03-17T03:14:03.581Z,4.42
2023-03-17T03:15:03.558Z,4.48
2023-03-17T03:16:03.575Z,4.27
2023-03-17T03:17:03.516Z,4.32
2023-03-17T03:18:03.545Z,4.41
2023-03-17T03:19:03.515Z,4.33
2023-03-17T03:20:03.496Z,4.33
2023-03-17T03:21:03.501Z,4.41
2023-03-17T03:22:03.456Z,4.44
2023-03-17T03:23:03.477Z,4.41
2023-03-17T03:24:03.438Z,4.41
2023-03-17T03:25:03.426Z,4.42
2023-03-17T03:26:03.433Z,4.44
2023-03-17T03:27:03.402Z,4.32
2023-03-17T03:28:03.391Z,4.41
2023-03-17T03:29:03.447Z,4.32
2023-03-17T03:30:03.364Z,4.26
2023-03-17T03:31:03.395Z,4.29
2023-03-17T03:32:03.347Z,4.20
2023-03-17T03:33:03.386Z,4.29
2023-03-17T03:34:03.387Z,4.27
2023-03-17T03:35:03.311Z,4.34
2023-03-17T03:36:03.325Z,4.42
2023-03-17T03:37:03.282Z,4.41
2023-03-17T03:38:03.269Z,4.34
2023-03-17T03:39:03.285Z,4.36
2023-03-17T03:40:03.296Z,4.42
2023-03-17T03:41:03.244Z,4.52
2023-03-17T03:42:03.241Z,4.59
2023-03-17T03:43:16.256Z,4.51
2023-03-17T03:44:03.212Z,4.62
2023-03-17T03:45:03.264Z,4.51
2023-03-17T03:46:04.210Z,4.47
2023-03-17T03:47:03.185Z,4.42
2023-03-17T03:48:03.152Z,4.44
2023-03-17T03:49:03.155Z,4.45
2023-03-17T03:50:03.141Z,4.41
2023-03-17T03:51:03.143Z,4.42
2023-03-17T03:52:03.736Z,4.44
2023-03-17T03:53:03.097Z,4.40
2023-03-17T03:54:03.116Z,4.37
2023-03-17T03:55:03.103Z,4.29
2023-03-17T03:56:03.107Z,4.20
2023-03-17T03:57:03.055Z,4.23
2023-03-17T03:58:04.067Z,4.27
2023-03-17T03:59:03.022Z,4.30
2023-03-17T04:00:03.025Z,4.29
2023-03-17T04:01:03.055Z,4.33
2023-03-17T04:02:03.002Z,4.23
2023-03-17T04:03:03.030Z,4.23
2023-03-17T04:04:02.997Z,4.12
2023-03-17T04:05:02.971Z,4.18
2023-03-17T04:06:02.949Z,4.06
2023-03-17T04:07:02.987Z,4.23
2023-03-17T04:08:02.918Z,4.15
2023-03-17T04:09:02.905Z,4.08
2023-03-17T04:10:02.932Z,4.15
2023-03-17T04:11:02.889Z,4.09
2023-03-17T04:12:02.913Z,4.18
2023-03-17T04:13:02.881Z,4.12
2023-03-17T04:14:02.855Z,4.18
2023-03-17T04:15:02.848Z,4.26
2023-03-17T04:16:02.874Z,4.26
2023-03-17T04:17:02.820Z,4.23
2023-03-17T04:18:02.813Z,4.30
2023-03-17T04:19:02.855Z,4.24
2023-03-17T04:20:02.808Z,4.32
2023-03-17T04:21:02.767Z,4.29
2023-03-17T04:22:02.773Z,4.29
2023-03-17T04:23:02.793Z,4.20
2023-03-17T04:24:02.776Z,4.29
2023-03-17T04:25:02.763Z,4.36
2023-03-17T04:26:02.731Z,4.24
2023-03-17T04:27:04.803Z,4.23
2023-03-17T04:28:02.733Z,4.18
2023-03-17T04:29:02.684Z,4.26
2023-03-17T04:30:38.947Z,4.18
2023-03-17T04:31:03.045Z,4.18
2023-03-17T04:32:03.046Z,4.11
2023-03-17T04:33:02.912Z,4.12
2023-03-17T04:34:02.674Z,4.15
2023-03-17T04:35:02.650Z,4.09
2023-03-17T04:36:02.646Z,4.05
2023-03-17T04:37:02.612Z,4.15
2023-03-17T04:38:02.605Z,4.08
2023-03-17T04:39:02.618Z,4.12
2023-03-17T04:40:02.577Z,4.08
2023-03-17T04:43:42.449Z,4.05
2023-03-17T04:44:42.485Z,4.11
2023-03-17T04:45:42.516Z,4.04
2023-03-17T04:46:42.444Z,4.12
2023-03-17T04:47:42.255Z,4.06
2023-03-17T04:48:42.270Z,4.06
2023-03-17T04:49:42.260Z,4.00
2023-03-17T04:50:52.540Z,4.15
2023-03-17T04:51:42.386Z,4.16
2023-03-17T04:58:30.044Z,4.06
2023-03-17T04:59:18.464Z,4.02
2023-03-17T05:00:18.461Z,4.02
2023-03-17T05:01:18.441Z,4.08
2023-03-17T05:02:18.342Z,4.06
2023-03-17T05:03:26.693Z,4.06
2023-03-17T05:12:35.402Z,3.80
2023-03-17T05:13:35.355Z,3.87
2023-03-17T05:14:35.401Z,3.78
2023-03-17T05:15:35.314Z,3.79
2023-03-17T05:16:35.378Z,3.79
2023-03-17T05:17:35.222Z,3.75
2023-03-17T05:18:35.343Z,3.75
2023-03-17T05:19:35.157Z,3.79
2023-03-17T05:20:35.138Z,3.76
2023-03-17T05:24:32.366Z,3.76
2023-03-17T05:25:32.161Z,3.78
2023-03-17T05:28:30.113Z,3.78
2023-03-17T05:29:30.182Z,3.72
2023-03-17T05:30:30.305Z,3.70
2023-03-17T05:31:30.123Z,3.80
2023-03-17T05:32:29.980Z,3.72
2023-03-17T05:33:29.915Z,3.73
2023-03-17T05:34:40.391Z,3.78
2023-03-17T05:35:30.001Z,3.72
2023-03-17T05:36:30.083Z,3.75
2023-03-17T05:37:29.995Z,3.68
2023-03-17T05:38:29.907Z,3.73
2023-03-17T05:39:29.844Z,3.78
2023-03-17T05:40:30.127Z,3.72
2023-03-17T05:41:29.815Z,3.72
2023-03-17T05:44:22.759Z,3.79
2023-03-17T05:45:22.634Z,3.88
2023-03-17T05:46:22.741Z,3.80
2023-03-17T05:47:22.613Z,3.83
2023-03-17T05:48:22.622Z,3.87
2023-03-17T05:49:22.592Z,3.80
2023-03-17T05:50:22.571Z,3.73
2023-03-17T05:51:22.861Z,3.80
2023-03-17T05:52:22.544Z,3.87
2023-03-17T05:53:22.558Z,3.84
2023-03-17T05:54:22.540Z,3.93
2023-03-17T05:55:22.506Z,3.90
2023-03-17T05:56:22.496Z,3.91
2023-03-17T05:57:22.525Z,4.00
2023-03-17T05:58:32.674Z,3.94
2023-03-17T05:59:22.645Z,3.90
2023-03-17T06:00:33.337Z,3.86
2023-03-17T06:01:22.774Z,3.86
2023-03-17T06:02:32.734Z,3.84
2023-03-17T06:03:22.593Z,3.91
2023-03-17T06:04:22.470Z,3.94
2023-03-17T06:05:22.574Z,3.91
2023-03-17T06:06:22.423Z,4.00
2023-03-17T06:07:22.418Z,4.00
2023-03-17T06:08:22.383Z,4.02
2023-03-17T06:09:22.350Z,3.98
2023-03-17T06:10:22.327Z,4.08
2023-03-17T06:11:22.333Z,4.09
2023-03-17T06:12:22.307Z,4.05
2023-03-17T06:13:22.317Z,4.12
2023-03-17T06:14:22.280Z,4.15
2023-03-17T06:15:33.023Z,4.08
2023-03-17T06:16:22.483Z,3.96
2023-03-17T06:17:22.309Z,4.11
2023-03-17T06:18:22.320Z,4.11
2023-03-17T06:19:22.256Z,4.09
2023-03-17T06:20:22.228Z,4.23
2023-03-17T06:21:22.214Z,4.29
2023-03-17T06:22:22.188Z,4.26
2023-03-17T06:23:22.356Z,4.16
2023-03-17T06:24:22.196Z,4.20
2023-03-17T06:25:22.163Z,4.24
2023-03-17T06:26:22.139Z,4.36
2023-03-17T06:27:22.125Z,4.27
2023-03-17T06:28:22.112Z,4.26
2023-03-17T06:29:22.108Z,4.26
2023-03-17T06:30:22.106Z,4.36
2023-03-17T06:31:22.341Z,4.42
2023-03-17T06:32:22.077Z,4.48
2023-03-17T06:33:22.058Z,4.52
2023-03-17T06:34:22.040Z,4.34
2023-03-17T06:35:22.071Z,4.27
2023-03-17T06:36:22.017Z,4.50
2023-03-17T06:37:22.009Z,4.50
2023-03-17T06:38:22.046Z,4.42
2023-03-17T06:39:21.995Z,4.72
2023-03-17T06:40:22.001Z,4.86
2023-03-17T06:41:21.963Z,4.75
2023-03-17T06:42:21.958Z,4.77
2023-03-17T06:43:21.945Z,4.86
2023-03-17T06:44:21.934Z,4.91
2023-03-17T06:45:23.103Z,4.96
2023-03-17T06:46:23.064Z,4.96
2023-03-17T06:47:25.867Z,4.97
2023-03-17T06:48:23.007Z,4.96
2023-03-17T06:49:22.980Z,5.04
2023-03-17T06:50:22.978Z,5.12
2023-03-17T06:51:22.982Z,5.30
2023-03-17T06:52:22.952Z,5.33
2023-03-17T06:53:22.966Z,5.36
2023-03-17T06:54:22.932Z,5.39
2023-03-17T06:55:22.920Z,5.68
2023-03-17T06:56:29.850Z,6.08
2023-03-17T06:57:23.905Z,6.43
2023-03-17T06:58:22.887Z,6.46
2023-03-17T06:59:22.875Z,6.43
2023-03-17T07:00:22.866Z,6.49
2023-03-17T07:01:23.969Z,6.81
2023-03-17T07:02:22.846Z,7.10
2023-03-17T07:03:22.824Z,7.21
2023-03-17T07:04:22.839Z,7.50
2023-03-17T07:05:22.841Z,7.82
2023-03-17T07:06:22.792Z,7.85
2023-03-17T07:07:22.838Z,7.72
2023-03-17T07:08:22.774Z,7.98
2023-03-17T07:09:22.776Z,8.12
2023-03-17T07:10:22.770Z,8.18
2023-03-17T07:11:22.738Z,8.29
2023-03-17T07:12:22.764Z,8.25
2023-03-17T07:13:22.729Z,8.41
2023-03-17T07:14:22.725Z,8.74
2023-03-17T07:15:22.700Z,8.92
2023-03-17T07:16:22.716Z,8.86
2023-03-17T07:17:22.674Z,8.59
2023-03-17T07:18:22.677Z,9.17
2023-03-17T07:19:22.653Z,9.47
2023-03-17T07:20:22.642Z,9.94
2023-03-17T07:21:22.630Z,10.14
2023-03-17T07:22:22.658Z,10.26
2023-03-17T07:23:22.648Z,10.14
2023-03-17T07:24:22.592Z,9.64
2023-03-17T07:25:22.581Z,10.01
2023-03-17T07:26:22.586Z,10.23
2023-03-17T07:27:23.206Z,10.60
2023-03-17T07:28:23.568Z,10.76
2023-03-17T07:29:22.543Z,10.11
2023-03-17T07:30:22.596Z,9.81
2023-03-17T07:31:22.522Z,9.78
2023-03-17T07:32:22.504Z,9.96
2023-03-17T07:33:22.532Z,9.38
2023-03-17T07:34:22.528Z,9.56
2023-03-17T07:35:22.512Z,9.47
2023-03-17T07:36:22.456Z,9.71
2023-03-17T07:37:22.467Z,9.43
2023-03-17T07:38:22.479Z,9.65
2023-03-17T07:39:22.465Z,9.56
2023-03-17T07:40:22.424Z,9.15
2023-03-17T07:41:22.392Z,9.36
2023-03-17T07:42:22.405Z,8.94
2023-03-17T07:43:22.381Z,9.17
2023-03-17T07:44:22.385Z,9.20
2023-03-17T07:45:22.350Z,8.96
2023-03-17T07:46:22.361Z,9.48
2023-03-17T07:47:22.357Z,9.57
2023-03-17T07:48:22.338Z,9.81
2023-03-17T07:49:38.136Z,9.87
2023-03-17T07:50:23.352Z,10.07
2023-03-17T07:51:22.285Z,10.29
2023-03-17T07:52:22.273Z,10.51
2023-03-17T07:53:22.289Z,10.01
2023-03-17T07:54:22.267Z,11.03
2023-03-17T07:55:22.264Z,11.42
2023-03-17T07:56:22.231Z,11.72
2023-03-17T07:57:22.450Z,11.51
2023-03-17T07:58:22.208Z,11.47
2023-03-17T07:59:22.236Z,11.55
2023-03-17T08:00:22.176Z,11.79
2023-03-17T08:01:22.168Z,11.40
2023-03-17T08:02:22.224Z,11.11
2023-03-17T08:03:22.297Z,11.44
2023-03-17T08:04:22.375Z,11.70
2023-03-17T08:05:22.164Z,11.39
2023-03-17T08:06:22.119Z,11.29
2023-03-17T08:07:22.163Z,11.39
2023-03-17T08:08:22.129Z,10.82
2023-03-17T08:09:22.118Z,10.48
2023-03-17T08:10:22.091Z,11.07
2023-03-17T08:11:22.089Z,11.35
2023-03-17T08:12:22.108Z,11.95
2023-03-17T08:13:22.208Z,10.97
2023-03-17T08:14:22.076Z,11.09
2023-03-17T08:15:22.051Z,11.39
2023-03-17T08:16:22.089Z,11.64
2023-03-17T08:17:22.012Z,12.21
2023-03-17T08:18:22.031Z,11.57
2023-03-17T08:19:22.050Z,11.69
2023-03-17T08:20:22.012Z,11.44
2023-03-17T08:21:21.971Z,11.98
2023-03-17T08:22:21.943Z,11.86
2023-03-17T08:23:21.980Z,11.82
2023-03-17T08:24:21.925Z,12.21
2023-03-17T08:25:21.955Z,12.39
2023-03-17T08:26:21.945Z,12.34
2023-03-17T08:27:21.911Z,11.72
2023-03-17T08:29:46.833Z,11.83
2023-03-17T08:29:48.331Z,11.61
2023-03-17T08:30:50.453Z,12.13
2023-03-17T08:33:59.057Z,11.73
2023-03-17T08:34:59.127Z,11.82
2023-03-17T08:35:59.105Z,11.73
2023-03-17T08:36:58.901Z,11.28
2023-03-17T08:37:59.380Z,10.66
2023-03-17T08:38:58.882Z,10.56
2023-03-17T08:39:58.843Z,10.89
2023-03-17T08:40:58.841Z,11.24
2023-03-17T08:41:58.909Z,11.52
2023-03-17T08:42:58.802Z,11.82
2023-03-17T08:43:58.856Z,11.19
2023-03-17T08:44:58.784Z,10.64
2023-03-17T08:45:58.797Z,10.88
2023-03-17T08:46:58.764Z,10.89
2023-03-17T08:47:58.828Z,10.29
2023-03-17T08:48:58.743Z,9.64
2023-03-17T08:49:58.721Z,9.56
2023-03-17T08:50:58.714Z,9.74
2023-03-17T08:51:58.702Z,9.65
2023-03-17T08:52:58.745Z,9.46
2023-03-17T08:53:58.687Z,9.42
2023-03-17T08:54:58.706Z,9.47
2023-03-17T08:55:58.650Z,9.35
2023-03-17T08:56:58.650Z,9.36
2023-03-17T08:57:58.685Z,9.54
2023-03-17T08:58:58.651Z,9.74
2023-03-17T08:59:58.611Z,9.86
2023-03-17T09:00:58.635Z,9.96
2023-03-17T09:01:58.589Z,10.26
2023-03-17T09:02:58.683Z,10.20
2023-03-17T09:03:58.556Z,10.32
2023-03-17T09:04:58.562Z,10.63
2023-03-17T09:05:58.532Z,10.51
2023-03-17T09:07:03.720Z,10.15
2023-03-17T09:07:59.659Z,10.14
2023-03-17T09:08:58.549Z,9.91
2023-03-17T09:09:58.508Z,9.84
2023-03-17T09:10:58.486Z,10.05
2023-03-17T09:11:58.498Z,10.27
2023-03-17T09:12:58.448Z,10.66
2023-03-17T09:13:58.439Z,11.02
2023-03-17T09:14:58.489Z,11.09
2023-03-17T09:15:58.466Z,10.99
2023-03-17T09:16:58.408Z,10.73
2023-03-17T09:17:58.414Z,10.74
2023-03-17T09:18:58.381Z,10.96
2023-03-17T09:19:58.401Z,11.28
2023-03-17T09:20:58.387Z,11.55
2023-03-17T09:21:58.350Z,11.65
2023-03-17T09:22:58.335Z,11.46
2023-03-17T09:24:00.994Z,11.52
2023-03-17T09:24:58.339Z,11.95
2023-03-17T09:25:58.297Z,12.41
2023-03-17T09:26:58.299Z,12.42
2023-03-17T09:27:58.273Z,12.20
2023-03-17T09:28:58.262Z,12.47
2023-03-17T09:29:59.381Z,12.31
2023-03-17T09:30:59.406Z,12.46
2023-03-17T09:31:59.391Z,12.01
2023-03-17T09:32:59.439Z,12.56
2023-03-17T09:33:59.322Z,12.62
2023-03-17T09:34:59.320Z,12.83
2023-03-17T09:35:59.384Z,12.82
2023-03-17T09:36:59.334Z,12.74
2023-03-17T09:37:59.334Z,13.00
2023-03-17T09:38:59.288Z,13.12
2023-03-17T09:40:00.287Z,13.14
2023-03-17T09:40:59.256Z,13.48
2023-03-17T09:41:59.284Z,13.59
2023-03-17T09:42:59.251Z,13.20
2023-03-17T09:43:59.265Z,13.79
2023-03-17T09:44:59.229Z,14.09
2023-03-17T09:45:59.230Z,13.69
2023-03-17T09:46:59.192Z,13.28
2023-03-17T09:47:59.202Z,13.73
2023-03-17T09:48:59.209Z,13.11
2023-03-17T09:49:59.191Z,13.26
2023-03-17T09:50:59.168Z,13.33
2023-03-17T09:51:59.187Z,13.79
2023-03-17T09:52:59.172Z,13.33
2023-03-17T09:53:59.118Z,12.89
2023-03-17T09:54:59.103Z,12.95
2023-03-17T09:55:59.110Z,13.05
2023-03-17T09:56:59.090Z,13.28
2023-03-17T09:57:59.090Z,12.89
2023-03-17T09:58:59.059Z,13.29
2023-03-17T09:59:59.072Z,13.73
2023-03-17T10:00:59.064Z,13.54
2023-03-17T10:01:59.142Z,13.63
2023-03-17T10:02:59.237Z,13.66
2023-03-17T10:03:59.029Z,13.55
2023-03-17T10:04:59.091Z,13.03
2023-03-17T10:05:58.974Z,12.96
2023-03-17T10:06:58.976Z,12.59
2023-03-17T10:07:59.066Z,12.53
2023-03-17T10:08:58.941Z,12.62
2023-03-17T10:09:59.005Z,12.47
2023-03-17T10:10:58.954Z,12.65
2023-03-17T10:11:58.905Z,12.45
2023-03-17T10:12:59.940Z,12.46
2023-03-17T10:13:58.890Z,12.27
2023-03-17T10:14:58.928Z,12.52
2023-03-17T10:15:58.903Z,12.64
2023-03-17T10:16:59.243Z,12.41
2023-03-17T10:17:58.879Z,12.45
2023-03-17T10:18:58.895Z,12.57
2023-03-17T10:19:58.844Z,12.67
2023-03-17T10:20:58.823Z,12.83
2023-03-17T10:21:58.893Z,12.93
2023-03-17T10:22:58.811Z,13.28
2023-03-17T10:23:58.820Z,13.19
2023-03-17T10:24:58.814Z,13.07
2023-03-17T10:25:59.115Z,13.19
2023-03-17T10:26:58.776Z,12.97
2023-03-17T10:27:58.777Z,13.20
2023-03-17T10:28:58.787Z,12.64
2023-03-17T10:29:58.730Z,12.52
2023-03-17T10:30:58.721Z,12.90
2023-03-17T10:31:59.018Z,13.07
2023-03-17T10:32:58.763Z,12.97
2023-03-17T10:33:58.685Z,13.08
2023-03-17T10:34:58.720Z,13.28
2023-03-17T10:35:58.665Z,13.73
2023-03-17T10:36:58.657Z,13.96
2023-03-17T10:38:13.508Z,14.06
2023-03-17T10:38:59.632Z,14.18
2023-03-17T10:39:58.625Z,13.70
2023-03-17T10:40:58.603Z,13.51
2023-03-17T10:41:58.618Z,13.32
2023-03-17T10:42:58.622Z,13.71
2023-03-17T10:43:58.597Z,13.92
2023-03-17T10:44:58.579Z,14.00
2023-03-17T10:45:58.531Z,13.51
2023-03-17T10:46:58.622Z,13.32
2023-03-17T10:47:58.556Z,13.46
2023-03-17T10:48:58.568Z,13.84
2023-03-17T10:49:58.509Z,13.62
2023-03-17T10:50:58.505Z,13.60
2023-03-17T10:51:58.495Z,13.63
2023-03-17T10:52:58.512Z,13.92
2023-03-17T10:53:58.470Z,13.99
2023-03-17T10:54:58.438Z,14.07
2023-03-17T10:55:58.468Z,14.22
2023-03-17T10:56:59.278Z,14.04
2023-03-17T10:57:58.449Z,14.04
2023-03-17T10:58:58.443Z,13.60
2023-03-17T10:59:58.430Z,13.36
2023-03-17T11:00:58.411Z,13.10
2023-03-17T11:01:58.423Z,13.51
2023-03-17T11:02:58.393Z,13.70
2023-03-17T11:03:58.377Z,13.63
2023-03-17T11:04:58.335Z,13.85
2023-03-17T11:05:58.359Z,13.75
2023-03-17T11:06:58.364Z,13.81
2023-03-17T11:07:58.347Z,13.73
2023-03-17T11:08:58.318Z,13.81
2023-03-17T11:09:58.317Z,13.64
2023-03-17T11:10:58.313Z,13.73
2023-03-17T11:11:58.993Z,14.02
2023-03-17T11:12:58.285Z,14.02
2023-03-17T11:13:58.297Z,13.77
2023-03-17T11:14:58.293Z,13.81
2023-03-17T11:15:58.263Z,13.51
2023-03-17T11:16:58.228Z,13.70
2023-03-17T11:17:58.279Z,13.82
2023-03-17T11:18:58.227Z,13.71
2023-03-17T11:19:58.181Z,13.60
2023-03-17T11:20:58.778Z,13.48
2023-03-17T11:21:58.165Z,13.45
2023-03-17T11:22:58.134Z,13.41
2023-03-17T11:23:58.170Z,13.30
2023-03-17T11:24:58.137Z,13.14
2023-03-17T11:25:58.122Z,13.12
2023-03-17T11:26:58.307Z,13.25
2023-03-17T11:27:58.095Z,12.87
2023-03-17T11:28:58.145Z,13.01
2023-03-17T11:29:58.080Z,12.67
2023-03-17T11:30:58.079Z,12.68
2023-03-17T11:31:58.119Z,12.72
2023-03-17T11:32:58.166Z,12.77
2023-03-17T11:33:58.081Z,12.82
2023-03-17T11:34:58.035Z,12.87
2023-03-17T11:35:58.086Z,12.86
2023-03-17T11:37:00.018Z,12.96
2023-03-17T11:37:58.028Z,12.95
2023-03-17T11:38:57.990Z,13.12
2023-03-17T11:39:58.017Z,13.00
2023-03-17T11:40:57.989Z,12.93
2023-03-17T11:41:57.953Z,13.05
2023-03-17T11:42:57.933Z,13.15
2023-03-17T11:43:57.949Z,12.92
2023-03-17T11:44:57.969Z,12.82
2023-03-17T11:45:57.976Z,12.62
2023-03-17T11:46:57.906Z,12.45
2023-03-17T11:47:59.859Z,12.45
2023-03-17T11:48:57.875Z,12.57
2023-03-17T11:49:57.874Z,12.67
2023-03-17T11:50:57.910Z,12.78
2023-03-17T11:51:57.882Z,13.00
2023-03-17T11:52:57.841Z,12.95
2023-03-17T11:53:57.828Z,13.07
2023-03-17T11:54:59.007Z,13.04
2023-03-17T11:55:57.841Z,13.25
2023-03-17T11:56:57.791Z,13.14
2023-03-17T11:57:57.774Z,13.01
2023-03-17T11:58:57.790Z,12.70
2023-03-17T11:59:57.752Z,12.83
2023-03-17T12:00:57.748Z,13.01
2023-03-17T12:01:57.976Z,13.01
2023-03-17T12:02:57.720Z,12.78
2023-03-17T12:03:57.825Z,12.89
2023-03-17T12:04:57.701Z,12.96
2023-03-17T12:05:57.693Z,12.72
2023-03-17T12:06:57.718Z,13.05
2023-03-17T12:07:57.698Z,13.29
2023-03-17T12:08:57.654Z,13.46
2023-03-17T12:09:57.683Z,13.55
2023-03-17T12:10:57.635Z,13.45
2023-03-17T12:11:57.631Z,13.20
2023-03-17T12:12:57.646Z,13.20
2023-03-17T12:13:57.607Z,13.01
2023-03-17T12:14:57.604Z,13.07
2023-03-17T12:15:57.664Z,13.22
2023-03-17T12:16:57.617Z,13.36
2023-03-17T12:17:57.572Z,13.59
2023-03-17T12:18:57.548Z,13.36
2023-03-17T12:19:58.543Z,13.30
2023-03-17T12:20:57.543Z,13.30
2023-03-17T12:21:57.565Z,13.51
2023-03-17T12:22:57.536Z,13.51
2023-03-17T12:23:57.519Z,13.49
2023-03-17T12:24:57.532Z,13.12
2023-03-17T12:25:57.497Z,13.30
2023-03-17T12:26:57.505Z,13.20
2023-03-17T12:27:57.526Z,13.26
2023-03-17T12:28:57.509Z,13.12
2023-03-17T12:29:57.455Z,13.15
2023-03-17T12:30:57.437Z,13.03
2023-03-17T12:31:57.428Z,12.89
2023-03-17T12:32:57.570Z,13.03
2023-03-17T12:33:57.444Z,13.08
2023-03-17T12:34:57.591Z,13.11
2023-03-17T12:35:57.405Z,13.03
2023-03-17T12:36:57.377Z,13.14
2023-03-17T12:37:57.414Z,13.22
2023-03-17T12:38:57.367Z,13.17
2023-03-17T12:39:57.316Z,13.12
2023-03-17T12:40:57.329Z,13.01
2023-03-17T12:41:57.554Z,13.07
2023-03-17T12:42:57.393Z,13.00
2023-03-17T12:43:57.305Z,13.11
2023-03-17T12:44:57.300Z,13.14
2023-03-17T12:45:57.297Z,13.12
2023-03-17T12:46:57.279Z,13.07
2023-03-17T12:47:57.263Z,13.05
2023-03-17T12:48:57.277Z,13.01
2023-03-17T12:49:57.227Z,13.05
2023-03-17T12:50:57.239Z,13.23
2023-03-17T12:51:57.236Z,13.19
2023-03-17T12:52:57.210Z,13.28
2023-03-17T12:53:57.211Z,13.26
2023-03-17T12:54:57.180Z,13.19
2023-03-17T12:55:57.194Z,13.07
2023-03-17T12:56:57.168Z,13.23
2023-03-17T12:57:57.172Z,13.23
2023-03-17T12:58:57.163Z,13.15
2023-03-17T12:59:57.117Z,13.10
2023-03-17T13:00:58.172Z,13.25
2023-03-17T13:01:57.129Z,13.32
2023-03-17T13:02:57.117Z,13.25
2023-03-17T13:03:57.128Z,13.29
2023-03-17T13:04:57.128Z,13.28
2023-03-17T13:05:57.076Z,13.33
2023-03-17T13:06:57.081Z,13.23
2023-03-17T13:07:57.092Z,13.20
2023-03-17T13:08:57.109Z,13.19
2023-03-17T13:09:57.012Z,13.38
2023-03-17T13:10:57.085Z,13.36
2023-03-17T13:11:56.984Z,13.12
2023-03-17T13:12:56.986Z,13.12
2023-03-17T13:13:56.981Z,13.15
2023-03-17T13:14:57.088Z,13.12
2023-03-17T13:15:57.035Z,13.11
2023-03-17T13:16:56.943Z,13.10
2023-03-17T13:17:56.941Z,12.95
2023-03-17T13:18:56.916Z,13.03
2023-03-17T13:19:56.981Z,13.07
2023-03-17T13:20:56.903Z,13.17
2023-03-17T13:21:56.986Z,13.12
2023-03-17T13:22:56.894Z,13.15
2023-03-17T13:23:56.913Z,12.96
2023-03-17T13:24:56.865Z,13.07
2023-03-17T13:25:56.883Z,13.10
2023-03-17T13:26:57.851Z,13.19
2023-03-17T13:27:56.847Z,13.20
2023-03-17T13:28:56.897Z,13.30
2023-03-17T13:29:56.803Z,13.29
2023-03-17T13:30:57.213Z,13.46
2023-03-17T13:31:56.810Z,13.45
2023-03-17T13:32:56.802Z,13.14